Time;durP1;ratioP1;P1;durP2;ratioP2;P2;SDS_P1;SDS_P2;PMS_P1;PMS_P2;Temp;Humidity;BMP_temperature;BMP_pressure;BME280_temperature;BME280_humidity;BME280_pressure;Samples;Min_cycle;Max_cycle;Signal;HPM_P1;HPM_P2
2022/01/17 00:01:36;;;;;;;15.43;12.00;;;;;;;;;;4992607;28;20270;-78
2022/01/17 00:04:02;;;;;;;15.15;10.93;;;;;;;;;;4990686;28;20187;-78
2022/01/17 00:06:28;;;;;;;14.98;10.90;;;;;;;;;;4991615;28;20195;-78
2022/01/17 00:08:54;;;;;;;18.25;11.27;;;;;;;;;;5006210;28;20178;-78
2022/01/17 00:11:20;;;;;;;14.75;10.32;;;;;;;;;;4987013;28;20541;-79
2022/01/17 00:13:47;;;;;;;14.27;10.75;;;;;;;;;;5009623;28;20167;-79
2022/01/17 00:16:18;;;;;;;16.38;11.05;;;;;;;;;;4989409;28;20186;-78
2022/01/17 00:21:11;;;;;;;18.55;12.02;;;;;;;;;;5005537;28;20187;-78
2022/01/17 00:23:37;;;;;;;16.98;11.23;;;;;;;;;;4988891;28;20282;-79
2022/01/17 00:26:05;;;;;;;13.48;10.18;;;;;;;;;;4987019;28;20742;-79
2022/01/17 00:28:31;;;;;;;15.32;10.88;;;;;;;;;;4989742;28;20179;-79
2022/01/17 00:30:59;;;;;;;16.83;10.15;;;;;;;;;;4991508;28;20191;-79
2022/01/17 00:33:25;;;;;;;12.65;9.65;;;;;;;;;;5005259;28;20183;-79
2022/01/17 00:35:51;;;;;;;13.05;9.60;;;;;;;;;;5005022;28;20262;-79
2022/01/17 00:38:17;;;;;;;13.48;10.20;;;;;;;;;;5002387;28;20187;-79
2022/01/17 00:40:43;;;;;;;13.85;9.90;;;;;;;;;;5009387;28;20215;-79
2022/01/17 00:43:11;;;;;;;13.75;10.00;;;;;;;;;;5005875;28;20314;-79
2022/01/17 00:45:39;;;;;;;10.88;9.50;;;;;;;;;;5005016;28;20211;-79
2022/01/17 00:48:05;;;;;;;13.95;9.95;;;;;;;;;;4989805;28;20182;-79
2022/01/17 00:50:31;;;;;;;12.40;9.70;;;;;;;;;;5002462;28;20191;-79
2022/01/17 00:53:01;;;;;;;12.70;10.20;;;;;;;;;;4989343;28;20262;-79
2022/01/17 00:55:27;;;;;;;15.48;10.60;;;;;;;;;;4990379;28;20171;-79
2022/01/17 00:57:53;;;;;;;14.88;10.48;;;;;;;;;;5005467;28;20644;-79
2022/01/17 01:00:19;;;;;;;13.07;10.13;;;;;;;;;;5004979;28;20210;-79
2022/01/17 01:02:46;;;;;;;14.25;10.48;;;;;;;;;;4988992;28;20178;-79
2022/01/17 01:05:13;;;;;;;15.73;11.27;;;;;;;;;;5002057;28;20250;-79
2022/01/17 01:07:39;;;;;;;15.25;10.48;;;;;;;;;;4990530;28;20589;-78
2022/01/17 01:10:10;;;;;;;13.38;10.55;;;;;;;;;;4986702;28;20186;-78
2022/01/17 01:12:36;;;;;;;13.23;10.30;;;;;;;;;;4995341;28;20190;-78
2022/01/17 01:15:05;;;;;;;12.80;9.40;;;;;;;;;;5000137;28;20189;-78
2022/01/17 01:17:35;;;;;;;16.17;10.68;;;;;;;;;;4985889;28;20182;-78
2022/01/17 01:20:14;;;;;;;14.30;10.82;;;;;;;;;;5004631;28;20179;-78
2022/01/17 01:28:10;;;;;;;12.52;9.85;;;;;;;;;;5006126;28;20233;-78
2022/01/17 01:30:41;;;;;;;13.98;10.00;;;;;;;;;;5004743;28;20183;-78
2022/01/17 01:33:07;;;;;;;15.65;11.32;;;;;;;;;;5004477;28;20182;-78
2022/01/17 01:35:34;;;;;;;17.23;10.60;;;;;;;;;;5001081;28;20187;-79
2022/01/17 01:38:01;;;;;;;14.35;8.98;;;;;;;;;;4987139;28;20186;-79
2022/01/17 01:40:27;;;;;;;12.27;9.80;;;;;;;;;;5006463;28;20229;-78
2022/01/17 01:42:55;;;;;;;18.73;12.27;;;;;;;;;;5005403;28;20191;-78
2022/01/17 01:45:21;;;;;;;15.63;10.48;;;;;;;;;;4989721;28;20199;-78
2022/01/17 01:47:48;;;;;;;16.02;11.38;;;;;;;;;;5002887;28;20432;-79
2022/01/17 01:50:14;;;;;;;14.55;10.38;;;;;;;;;;4984493;28;20192;-79
2022/01/17 01:52:43;;;;;;;17.25;11.20;;;;;;;;;;4990765;28;20184;-79
2022/01/17 01:55:10;;;;;;;14.90;10.35;;;;;;;;;;4989500;28;20337;-79
2022/01/17 01:57:36;;;;;;;14.23;10.85;;;;;;;;;;4990228;28;20202;-78
2022/01/17 02:00:04;;;;;;;14.38;10.70;;;;;;;;;;4989019;28;20213;-78
2022/01/17 02:02:30;;;;;;;15.98;10.10;;;;;;;;;;4987261;28;20233;-78
2022/01/17 02:04:56;;;;;;;13.83;10.13;;;;;;;;;;5005561;28;20214;-78
2022/01/17 02:07:22;;;;;;;16.17;11.30;;;;;;;;;;4990093;28;20437;-78
2022/01/17 02:09:48;;;;;;;19.15;11.70;;;;;;;;;;5000626;28;20521;-78
2022/01/17 02:12:20;;;;;;;16.33;11.38;;;;;;;;;;4989709;28;20242;-78
2022/01/17 02:14:46;;;;;;;16.20;10.20;;;;;;;;;;4988568;28;20281;-78
2022/01/17 02:17:12;;;;;;;14.68;10.30;;;;;;;;;;5000887;28;20294;-78
2022/01/17 02:19:45;;;;;;;17.08;11.55;;;;;;;;;;5007474;28;20179;-78
2022/01/17 02:22:11;;;;;;;14.73;11.07;;;;;;;;;;5003976;28;20213;-78
2022/01/17 02:24:37;;;;;;;16.65;11.38;;;;;;;;;;4990032;28;20218;-78
2022/01/17 02:27:03;;;;;;;14.98;10.20;;;;;;;;;;4989094;28;20239;-78
2022/01/17 02:29:30;;;;;;;12.80;10.93;;;;;;;;;;4986051;28;20176;-78
2022/01/17 02:31:56;;;;;;;16.95;10.95;;;;;;;;;;4988120;28;20560;-78
2022/01/17 02:34:22;;;;;;;15.80;11.20;;;;;;;;;;5005140;28;20676;-78
2022/01/17 02:36:48;;;;;;;15.93;11.85;;;;;;;;;;4989091;28;20187;-78
2022/01/17 02:39:15;;;;;;;16.83;11.35;;;;;;;;;;4989267;28;20246;-78
2022/01/17 02:41:44;;;;;;;17.80;10.02;;;;;;;;;;5025099;28;20198;-79
2022/01/17 02:44:10;;;;;;;13.52;9.48;;;;;;;;;;5019166;28;20215;-78
2022/01/17 02:46:37;;;;;;;19.00;12.45;;;;;;;;;;5023478;28;20181;-78
2022/01/17 02:49:05;;;;;;;17.15;11.73;;;;;;;;;;5023655;28;20218;-78
2022/01/17 02:51:31;;;;;;;12.77;10.30;;;;;;;;;;5024685;28;20178;-79
2022/01/17 02:53:57;;;;;;;15.13;10.90;;;;;;;;;;5022291;28;20190;-78
2022/01/17 02:56:24;;;;;;;13.30;10.05;;;;;;;;;;5022837;28;20190;-78
2022/01/17 02:58:50;;;;;;;17.15;12.60;;;;;;;;;;5025131;28;20178;-78
2022/01/17 03:01:16;;;;;;;17.60;9.95;;;;;;;;;;5024569;28;20183;-78
2022/01/17 03:03:43;;;;;;;19.77;10.18;;;;;;;;;;5023346;28;20195;-78
2022/01/17 03:06:12;;;;;;;18.20;11.45;;;;;;;;;;5022055;28;20216;-78
2022/01/17 03:08:39;;;;;;;15.35;10.10;;;;;;;;;;5024652;28;20174;-78
2022/01/17 03:11:06;;;;;;;14.45;10.35;;;;;;;;;;5025130;28;20201;-78
2022/01/17 03:13:34;;;;;;;17.73;11.05;;;;;;;;;;5019383;28;20179;-79
2022/01/17 03:16:04;;;;;;;16.13;11.20;;;;;;;;;;5014720;28;20236;-79
2022/01/17 03:18:31;;;;;;;13.23;10.63;;;;;;;;;;5016070;28;20214;-79
2022/01/17 03:20:58;;;;;;;12.43;10.63;;;;;;;;;;5023577;28;20190;-78
2022/01/17 03:23:24;;;;;;;14.57;10.75;;;;;;;;;;5022936;28;20198;-78
2022/01/17 03:25:50;;;;;;;18.23;11.15;;;;;;;;;;5024435;28;20230;-78
2022/01/17 03:28:16;;;;;;;15.27;10.98;;;;;;;;;;5020723;28;21077;-78
2022/01/17 03:30:42;;;;;;;15.00;9.80;;;;;;;;;;5024422;28;20190;-78
2022/01/17 03:33:09;;;;;;;17.45;9.88;;;;;;;;;;5023732;28;20178;-78
2022/01/17 03:35:38;;;;;;;12.95;10.50;;;;;;;;;;5023363;28;20202;-78
2022/01/17 03:38:04;;;;;;;14.05;10.50;;;;;;;;;;5022538;28;20174;-78
2022/01/17 03:40:30;;;;;;;12.50;9.27;;;;;;;;;;5010125;28;20219;-78
2022/01/17 03:42:56;;;;;;;14.60;10.02;;;;;;;;;;4991087;28;20202;-78
2022/01/17 03:45:22;;;;;;;11.68;9.00;;;;;;;;;;4991768;28;20214;-78
2022/01/17 03:47:48;;;;;;;13.43;9.75;;;;;;;;;;4990541;28;20182;-78
2022/01/17 03:50:16;;;;;;;16.42;11.73;;;;;;;;;;4986337;28;20191;-78
2022/01/17 03:52:42;;;;;;;16.00;10.95;;;;;;;;;;5010275;28;20182;-78
2022/01/17 03:55:12;;;;;;;16.63;10.48;;;;;;;;;;5006474;28;20194;-78
2022/01/17 03:57:38;;;;;;;15.55;10.32;;;;;;;;;;4990019;28;20214;-78
2022/01/17 04:00:06;;;;;;;13.13;9.85;;;;;;;;;;4992082;28;20186;-78
2022/01/17 04:02:32;;;;;;;16.30;11.50;;;;;;;;;;5003495;28;20203;-78
2022/01/17 04:04:58;;;;;;;15.65;12.25;;;;;;;;;;4988694;28;20667;-78
2022/01/17 04:07:24;;;;;;;18.52;12.40;;;;;;;;;;5007869;28;20179;-78
2022/01/17 04:09:50;;;;;;;13.82;9.15;;;;;;;;;;4991323;28;20187;-78
2022/01/17 04:12:16;;;;;;;12.75;10.10;;;;;;;;;;4991031;28;20179;-78
2022/01/17 04:14:42;;;;;;;16.30;10.75;;;;;;;;;;4987336;28;20244;-78
2022/01/17 04:17:08;;;;;;;14.60;11.18;;;;;;;;;;4985006;28;20589;-78
2022/01/17 04:19:34;;;;;;;14.80;10.77;;;;;;;;;;4992502;28;20179;-78
2022/01/17 04:22:01;;;;;;;16.00;12.30;;;;;;;;;;4991412;28;20191;-78
2022/01/17 04:24:27;;;;;;;13.77;10.93;;;;;;;;;;4991270;28;20238;-79
2022/01/17 04:26:54;;;;;;;18.02;11.57;;;;;;;;;;5004487;28;20246;-78
2022/01/17 04:29:20;;;;;;;16.17;11.00;;;;;;;;;;4985675;28;20243;-78
2022/01/17 04:31:46;;;;;;;15.95;11.82;;;;;;;;;;4992006;28;20167;-78
2022/01/17 04:34:13;;;;;;;15.98;10.45;;;;;;;;;;4990705;28;20198;-78
2022/01/17 04:36:39;;;;;;;15.02;11.00;;;;;;;;;;4991382;28;20494;-78
2022/01/17 04:39:05;;;;;;;16.27;11.27;;;;;;;;;;5005589;28;20209;-78
2022/01/17 04:41:39;;;;;;;16.77;11.77;;;;;;;;;;4985823;28;20190;-78
2022/01/17 04:46:50;;;;;;;18.25;11.45;;;;;;;;;;5016269;28;20197;-78
2022/01/17 04:49:16;;;;;;;15.20;11.90;;;;;;;;;;5005651;28;20179;-78
2022/01/17 04:51:43;;;;;;;14.68;10.45;;;;;;;;;;4990816;28;20617;-78
2022/01/17 04:56:54;;;;;;;15.65;9.98;;;;;;;;;;5005137;28;20181;-78
2022/01/17 04:59:20;;;;;;;14.88;10.43;;;;;;;;;;4985754;28;20661;-78
2022/01/17 05:01:46;;;;;;;14.93;10.20;;;;;;;;;;4991854;28;20186;-78
2022/01/17 05:04:12;;;;;;;15.15;10.88;;;;;;;;;;5004592;28;20665;-78
2022/01/17 05:06:38;;;;;;;18.25;11.43;;;;;;;;;;5004849;28;20191;-78
2022/01/17 05:09:04;;;;;;;11.30;9.43;;;;;;;;;;5003886;28;20189;-78
2022/01/17 05:11:31;;;;;;;13.98;10.80;;;;;;;;;;5001796;28;20441;-78
2022/01/17 05:13:58;;;;;;;13.18;10.68;;;;;;;;;;4988792;28;20633;-78
2022/01/17 05:16:33;;;;;;;16.65;10.88;;;;;;;;;;4990219;28;20179;-78
2022/01/17 05:21:43;;;;;;;18.27;11.00;;;;;;;;;;5004990;28;20266;-78
2022/01/17 05:24:09;;;;;;;21.60;10.90;;;;;;;;;;4989349;28;20198;-78
2022/01/17 05:26:35;;;;;;;13.25;11.02;;;;;;;;;;4987896;28;20183;-78
2022/01/17 05:29:01;;;;;;;16.95;11.82;;;;;;;;;;4987055;28;20179;-78
2022/01/17 05:31:27;;;;;;;15.10;10.20;;;;;;;;;;4991056;28;20186;-78
2022/01/17 05:33:53;;;;;;;12.15;10.13;;;;;;;;;;4990225;28;20449;-78
2022/01/17 05:36:19;;;;;;;14.90;11.00;;;;;;;;;;4990149;28;20238;-78
2022/01/17 05:38:45;;;;;;;13.60;10.10;;;;;;;;;;5002975;28;20190;-78
2022/01/17 05:41:11;;;;;;;13.75;9.68;;;;;;;;;;4985581;28;20198;-78
2022/01/17 05:43:37;;;;;;;12.77;10.02;;;;;;;;;;5009141;28;20549;-79
2022/01/17 05:46:03;;;;;;;14.15;10.27;;;;;;;;;;4989378;28;20223;-79
2022/01/17 05:48:29;;;;;;;14.13;10.32;;;;;;;;;;4989176;28;20183;-78
2022/01/17 05:50:56;;;;;;;15.07;10.98;;;;;;;;;;5005251;28;20206;-78
2022/01/17 05:53:22;;;;;;;10.50;9.23;;;;;;;;;;4984108;28;20202;-78
2022/01/17 05:55:48;;;;;;;13.00;10.13;;;;;;;;;;4997691;28;20194;-78
2022/01/17 05:58:14;;;;;;;12.80;9.50;;;;;;;;;;4989810;28;20191;-78
2022/01/17 06:00:40;;;;;;;11.40;9.77;;;;;;;;;;4990095;28;20617;-78
2022/01/17 06:03:06;;;;;;;11.15;8.25;;;;;;;;;;5004633;28;20237;-78
2022/01/17 06:05:32;;;;;;;13.70;9.38;;;;;;;;;;5000912;28;20728;-78
2022/01/17 06:07:58;;;;;;;13.27;10.35;;;;;;;;;;4986831;28;20183;-78
2022/01/17 06:10:24;;;;;;;13.60;9.85;;;;;;;;;;5007055;28;20821;-78
2022/01/17 06:12:50;;;;;;;17.38;9.90;;;;;;;;;;4989608;28;20233;-78
2022/01/17 06:15:18;;;;;;;13.20;9.27;;;;;;;;;;4989242;28;20179;-78
2022/01/17 06:17:44;;;;;;;13.70;10.27;;;;;;;;;;5002467;28;20191;-78
2022/01/17 06:20:10;;;;;;;14.00;10.18;;;;;;;;;;5003080;28;20219;-78
2022/01/17 06:22:36;;;;;;;12.32;9.95;;;;;;;;;;5010054;28;20179;-78
2022/01/17 06:25:03;;;;;;;11.18;9.25;;;;;;;;;;5008066;28;20202;-78
2022/01/17 06:27:29;;;;;;;11.45;9.70;;;;;;;;;;4993064;28;20254;-78
2022/01/17 06:29:56;;;;;;;13.93;9.85;;;;;;;;;;4993016;28;20170;-78
2022/01/17 06:32:22;;;;;;;13.05;9.55;;;;;;;;;;4987898;28;20224;-78
2022/01/17 06:34:48;;;;;;;12.65;9.13;;;;;;;;;;5001224;28;20196;-78
2022/01/17 06:37:14;;;;;;;10.85;9.13;;;;;;;;;;4992176;28;20682;-78
2022/01/17 06:39:40;;;;;;;12.13;8.98;;;;;;;;;;5007418;28;20222;-78
2022/01/17 06:42:06;;;;;;;11.88;9.50;;;;;;;;;;4993053;28;20186;-78
2022/01/17 06:44:32;;;;;;;10.98;9.13;;;;;;;;;;5006159;28;20230;-78
2022/01/17 06:46:58;;;;;;;13.20;9.00;;;;;;;;;;4991177;28;20183;-78
2022/01/17 06:49:24;;;;;;;11.73;9.27;;;;;;;;;;4989108;28;20172;-78
2022/01/17 06:51:50;;;;;;;15.45;10.98;;;;;;;;;;5004958;28;20187;-78
2022/01/17 06:54:16;;;;;;;15.32;10.00;;;;;;;;;;5006914;28;20179;-78
2022/01/17 06:56:44;;;;;;;17.48;11.73;;;;;;;;;;4991212;28;20183;-78
2022/01/17 06:59:14;;;;;;;15.45;10.98;;;;;;;;;;4988268;28;20552;-78
2022/01/17 07:01:40;;;;;;;18.77;11.35;;;;;;;;;;5009635;28;20179;-78
2022/01/17 07:04:06;;;;;;;15.38;11.45;;;;;;;;;;4992454;28;20191;-78
2022/01/17 07:06:32;;;;;;;14.43;10.88;;;;;;;;;;4991474;28;20668;-78
2022/01/17 07:08:58;;;;;;;16.50;10.10;;;;;;;;;;5006630;28;20189;-78
2022/01/17 07:11:26;;;;;;;15.45;11.32;;;;;;;;;;4986955;28;20207;-78
2022/01/17 07:13:52;;;;;;;17.38;10.73;;;;;;;;;;5010111;28;20167;-78
2022/01/17 07:16:18;;;;;;;18.27;10.63;;;;;;;;;;4987227;28;20199;-78
2022/01/17 07:18:44;;;;;;;18.17;11.10;;;;;;;;;;5003243;28;20191;-78
2022/01/17 07:21:11;;;;;;;13.88;10.63;;;;;;;;;;4991240;28;20187;-78
2022/01/17 07:23:37;;;;;;;15.57;11.15;;;;;;;;;;4995426;28;20233;-78
2022/01/17 07:26:03;;;;;;;14.63;10.32;;;;;;;;;;4998434;28;20440;-79
2022/01/17 07:28:29;;;;;;;14.70;10.35;;;;;;;;;;4992825;28;20246;-79
2022/01/17 07:30:56;;;;;;;17.03;9.70;;;;;;;;;;5008232;28;20202;-79
2022/01/17 07:33:24;;;;;;;12.32;10.15;;;;;;;;;;4991605;28;20514;-78
2022/01/17 07:35:50;;;;;;;16.50;11.73;;;;;;;;;;4991224;28;20193;-78
2022/01/17 07:38:16;;;;;;;12.55;10.85;;;;;;;;;;4986783;28;20192;-78
2022/01/17 07:40:43;;;;;;;12.90;10.90;;;;;;;;;;5020608;28;20222;-78
2022/01/17 07:43:10;;;;;;;16.05;10.55;;;;;;;;;;5024046;28;20230;-78
2022/01/17 07:45:43;;;;;;;14.13;11.35;;;;;;;;;;5021320;28;20221;-78
2022/01/17 07:48:32;;;;;;;19.42;10.85;;;;;;;;;;5022192;28;20189;-78
2022/01/17 07:50:55;;;;;;;18.80;13.13;;;;;;;;;;5021611;28;20623;-78
2022/01/17 07:53:21;;;;;;;21.60;14.38;;;;;;;;;;5022165;28;20583;-78
2022/01/17 07:55:47;;;;;;;20.45;14.40;;;;;;;;;;5025729;28;20195;-79
2022/01/17 07:58:13;;;;;;;20.63;15.10;;;;;;;;;;5018326;28;20199;-78
2022/01/17 08:00:39;;;;;;;19.67;15.20;;;;;;;;;;5016392;28;20186;-78
2022/01/17 08:03:06;;;;;;;25.98;16.15;;;;;;;;;;5021560;28;20349;-81
2022/01/17 08:05:32;;;;;;;18.55;13.55;;;;;;;;;;5021070;28;20213;-80
2022/01/17 08:07:58;;;;;;;17.85;13.63;;;;;;;;;;5015809;28;20179;-81
2022/01/17 08:10:24;;;;;;;18.20;12.97;;;;;;;;;;5022820;28;20174;-81
2022/01/17 08:12:50;;;;;;;18.92;12.45;;;;;;;;;;5015343;28;20438;-80
2022/01/17 08:15:17;;;;;;;17.40;11.98;;;;;;;;;;5013745;28;20182;-80
2022/01/17 08:17:43;;;;;;;17.63;13.85;;;;;;;;;;5021234;28;20191;-80
2022/01/17 08:20:10;;;;;;;18.10;12.75;;;;;;;;;;5021681;28;20181;-80
2022/01/17 08:22:36;;;;;;;20.95;12.43;;;;;;;;;;5022430;28;20246;-80
2022/01/17 08:25:03;;;;;;;16.67;12.18;;;;;;;;;;5019842;28;20240;-80
2022/01/17 08:27:29;;;;;;;19.23;12.88;;;;;;;;;;5022539;28;20808;-80
2022/01/17 08:29:55;;;;;;;15.43;12.00;;;;;;;;;;5021181;28;20186;-80
2022/01/17 08:32:22;;;;;;;17.63;13.80;;;;;;;;;;5006390;28;20183;-81
2022/01/17 08:34:48;;;;;;;20.00;13.77;;;;;;;;;;5023896;28;20687;-81
2022/01/17 08:37:14;;;;;;;19.08;12.95;;;;;;;;;;5026282;28;20190;-81
2022/01/17 08:39:39;;;;;;;20.73;14.65;;;;;;;;;;5022497;28;20238;-81
2022/01/17 08:42:10;;;;;;;19.08;15.82;;;;;;;;;;5020207;28;20189;-81
2022/01/17 08:44:37;;;;;;;21.63;16.20;;;;;;;;;;5016742;28;20203;-81
2022/01/17 08:47:03;;;;;;;19.80;14.57;;;;;;;;;;5020433;28;20185;-81
2022/01/17 08:49:29;;;;;;;19.13;13.43;;;;;;;;;;5021996;28;20169;-81
2022/01/17 08:51:55;;;;;;;20.92;16.08;;;;;;;;;;5021454;28;20265;-82
2022/01/17 08:54:21;;;;;;;19.15;12.80;;;;;;;;;;5019536;28;20178;-81
2022/01/17 08:56:47;;;;;;;22.27;13.77;;;;;;;;;;5018667;28;20234;-81
2022/01/17 08:59:13;;;;;;;23.92;15.40;;;;;;;;;;5019874;28;20199;-81
2022/01/17 09:01:39;;;;;;;20.52;12.45;;;;;;;;;;5006254;28;20212;-81
2022/01/17 09:04:05;;;;;;;21.80;14.90;;;;;;;;;;5007517;28;20190;-81
2022/01/17 09:06:31;;;;;;;19.30;14.15;;;;;;;;;;5005648;28;20214;-81
2022/01/17 09:08:58;;;;;;;17.30;12.05;;;;;;;;;;5020191;28;20191;-81
2022/01/17 09:11:24;;;;;;;16.92;13.15;;;;;;;;;;5020513;28;20174;-82
2022/01/17 09:13:50;;;;;;;22.02;13.02;;;;;;;;;;5022802;28;20170;-81
2022/01/17 09:16:16;;;;;;;25.85;16.17;;;;;;;;;;5020695;28;20348;-81
2022/01/17 09:18:42;;;;;;;19.40;12.70;;;;;;;;;;5019674;28;20186;-81
2022/01/17 09:21:09;;;;;;;19.75;13.90;;;;;;;;;;5020599;28;20312;-81
2022/01/17 09:23:36;;;;;;;19.95;13.15;;;;;;;;;;5019863;28;20186;-81
2022/01/17 09:26:02;;;;;;;19.63;13.32;;;;;;;;;;5015294;28;20199;-81
2022/01/17 09:28:28;;;;;;;19.25;12.80;;;;;;;;;;5018747;28;20229;-81
2022/01/17 09:30:54;;;;;;;17.92;12.75;;;;;;;;;;5013440;28;20237;-81
2022/01/17 09:33:21;;;;;;;19.13;13.55;;;;;;;;;;5012700;28;20189;-80
2022/01/17 09:35:47;;;;;;;16.75;12.23;;;;;;;;;;5016311;28;20195;-80
2022/01/17 09:38:13;;;;;;;21.08;13.70;;;;;;;;;;5008017;28;20249;-81
2022/01/17 09:40:39;;;;;;;19.20;13.25;;;;;;;;;;5018048;28;20309;-80
2022/01/17 09:43:05;;;;;;;24.73;14.05;;;;;;;;;;5021074;28;20208;-80
2022/01/17 09:45:32;;;;;;;22.38;14.63;;;;;;;;;;5020079;28;20606;-80
2022/01/17 09:48:01;;;;;;;19.48;13.68;;;;;;;;;;5019919;28;20182;-80
2022/01/17 09:50:34;;;;;;;21.52;14.63;;;;;;;;;;5018821;28;20182;-80
2022/01/17 09:53:01;;;;;;;16.30;12.45;;;;;;;;;;5021374;28;20223;-80
2022/01/17 09:55:28;;;;;;;15.85;10.15;;;;;;;;;;5022820;28;20270;-80
2022/01/17 09:57:56;;;;;;;18.13;12.20;;;;;;;;;;5024985;28;20184;-80
2022/01/17 10:00:26;;;;;;;15.80;11.20;;;;;;;;;;5024873;28;20205;-80
2022/01/17 10:02:53;;;;;;;18.45;12.00;;;;;;;;;;5025237;28;20197;-80
2022/01/17 10:05:20;;;;;;;17.33;11.88;;;;;;;;;;5020350;28;20242;-80
2022/01/17 10:07:53;;;;;;;16.58;11.40;;;;;;;;;;5026249;28;20183;-80
2022/01/17 10:10:40;;;;;;;15.00;10.80;;;;;;;;;;5024706;28;20174;-80
2022/01/17 10:13:06;;;;;;;17.25;11.30;;;;;;;;;;5005784;28;20528;-80
2022/01/17 10:15:51;;;;;;;17.27;12.05;;;;;;;;;;5024168;28;20241;-80
2022/01/17 10:18:24;;;;;;;14.52;11.18;;;;;;;;;;5024619;28;20636;-80
2022/01/17 10:20:59;;;;;;;15.10;10.90;;;;;;;;;;5023282;28;20197;-80
2022/01/17 10:26:31;;;;;;;16.52;10.80;;;;;;;;;;5025597;28;20240;-80
2022/01/17 10:29:15;;;;;;;18.17;11.80;;;;;;;;;;5017652;28;20178;-80
2022/01/17 10:37:12;;;;;;;13.73;10.57;;;;;;;;;;5023139;28;20224;-80
2022/01/17 10:39:51;;;;;;;16.60;10.90;;;;;;;;;;5023206;28;20228;-80
2022/01/17 10:42:28;;;;;;;14.90;10.88;;;;;;;;;;5023279;28;20245;-80
2022/01/17 10:44:54;;;;;;;16.45;11.65;;;;;;;;;;5024479;28;20213;-80
2022/01/17 10:47:26;;;;;;;14.68;10.52;;;;;;;;;;5022664;28;20242;-80
2022/01/17 10:49:54;;;;;;;21.20;12.15;;;;;;;;;;5020131;28;20190;-80
2022/01/17 10:52:31;;;;;;;18.55;12.85;;;;;;;;;;5013444;28;20539;-80
2022/01/17 10:54:58;;;;;;;17.30;10.85;;;;;;;;;;5009991;28;20198;-80
2022/01/17 10:57:25;;;;;;;18.25;11.65;;;;;;;;;;5017455;28;20236;-80
2022/01/17 10:59:52;;;;;;;19.27;12.18;;;;;;;;;;5023215;28;20194;-81
2022/01/17 11:02:18;;;;;;;19.60;11.57;;;;;;;;;;5023298;28;20194;-80
2022/01/17 11:04:48;;;;;;;15.00;10.80;;;;;;;;;;5026251;28;20194;-80
2022/01/17 11:07:14;;;;;;;17.70;11.05;;;;;;;;;;5023287;28;20237;-81
2022/01/17 11:09:44;;;;;;;18.75;11.50;;;;;;;;;;5023286;28;20194;-81
2022/01/17 11:12:11;;;;;;;15.50;12.13;;;;;;;;;;5020513;28;20182;-81
2022/01/17 11:14:38;;;;;;;16.98;10.65;;;;;;;;;;5018721;28;20696;-81
2022/01/17 11:17:35;;;;;;;16.70;11.45;;;;;;;;;;5015623;28;20185;-80
2022/01/17 11:20:12;;;;;;;16.48;11.32;;;;;;;;;;5017730;28;20193;-80
2022/01/17 11:22:39;;;;;;;15.23;11.82;;;;;;;;;;5009271;28;20251;-80
2022/01/17 11:25:06;;;;;;;18.65;11.95;;;;;;;;;;5013983;28;20211;-80
2022/01/17 11:27:32;;;;;;;20.70;12.60;;;;;;;;;;5010372;28;20179;-81
2022/01/17 11:29:59;;;;;;;15.95;11.88;;;;;;;;;;5020615;28;20245;-81
2022/01/17 11:32:25;;;;;;;17.35;12.20;;;;;;;;;;5005756;28;20183;-81
2022/01/17 11:34:52;;;;;;;18.42;11.38;;;;;;;;;;5020413;28;20178;-81
2022/01/17 11:37:19;;;;;;;17.08;11.70;;;;;;;;;;5009913;28;20695;-81
2022/01/17 11:39:50;;;;;;;17.85;11.80;;;;;;;;;;5015776;28;20644;-80
2022/01/17 11:42:28;;;;;;;14.13;10.38;;;;;;;;;;5009207;28;20195;-80
2022/01/17 11:44:54;;;;;;;10.32;8.40;;;;;;;;;;5010999;28;20229;-80
2022/01/17 11:47:39;;;;;;;14.90;10.35;;;;;;;;;;5014841;28;26069;-80
2022/01/17 11:50:24;;;;;;;12.75;8.45;;;;;;;;;;5004867;28;20186;-80
2022/01/17 11:52:50;;;;;;;11.35;7.90;;;;;;;;;;5005936;28;20172;-80
2022/01/17 11:55:42;;;;;;;15.93;10.55;;;;;;;;;;5019774;28;20246;-80
2022/01/17 11:58:27;;;;;;;11.02;9.43;;;;;;;;;;5017942;28;20217;-80
2022/01/17 12:00:59;;;;;;;14.38;8.85;;;;;;;;;;5011774;28;20214;-80
2022/01/17 12:03:40;;;;;;;13.43;9.48;;;;;;;;;;5004855;28;20183;-80
2022/01/17 12:06:33;;;;;;;11.23;9.60;;;;;;;;;;5009716;28;20660;-80
2022/01/17 12:09:19;;;;;;;13.15;9.82;;;;;;;;;;5005000;28;20245;-80
2022/01/17 12:11:45;;;;;;;20.98;11.30;;;;;;;;;;5008094;28;20661;-80
2022/01/17 12:14:22;;;;;;;15.00;10.27;;;;;;;;;;5017572;28;20183;-80
2022/01/17 12:16:48;;;;;;;17.92;11.50;;;;;;;;;;5023558;28;20284;-80
2022/01/17 12:19:14;;;;;;;18.33;10.98;;;;;;;;;;5018143;28;20186;-79
2022/01/17 12:21:41;;;;;;;15.55;11.32;;;;;;;;;;5018101;28;20186;-80
2022/01/17 12:24:25;;;;;;;14.15;9.82;;;;;;;;;;5018583;28;20328;-80
2022/01/17 12:26:54;;;;;;;18.10;10.43;;;;;;;;;;5004391;28;20178;-80
2022/01/17 12:29:52;;;;;;;19.10;12.25;;;;;;;;;;5005072;28;20183;-79
2022/01/17 12:32:21;;;;;;;16.73;11.65;;;;;;;;;;5019934;28;20210;-81
2022/01/17 12:34:47;;;;;;;13.48;9.57;;;;;;;;;;5009144;28;20552;-80
2022/01/17 12:37:44;;;;;;;14.32;10.75;;;;;;;;;;5011840;28;20599;-80
2022/01/17 12:40:30;;;;;;;16.20;9.60;;;;;;;;;;5006394;28;20234;-80
2022/01/17 12:43:00;;;;;;;14.23;9.60;;;;;;;;;;5016817;28;20190;-79
2022/01/17 12:45:33;;;;;;;14.38;11.10;;;;;;;;;;5016258;28;20249;-81
2022/01/17 12:48:00;;;;;;;18.48;11.98;;;;;;;;;;5019885;28;20548;-79
2022/01/17 12:50:27;;;;;;;17.17;11.88;;;;;;;;;;5014409;28;20186;-80
2022/01/17 12:52:57;;;;;;;14.75;10.93;;;;;;;;;;5007196;28;20175;-81
2022/01/17 12:55:24;;;;;;;17.70;11.10;;;;;;;;;;5019887;28;20217;-80
2022/01/17 12:57:51;;;;;;;17.67;11.65;;;;;;;;;;5014416;28;20182;-80
2022/01/17 13:00:21;;;;;;;14.65;10.98;;;;;;;;;;5019161;28;20198;-80
2022/01/17 13:02:49;;;;;;;14.98;10.80;;;;;;;;;;5019897;28;20174;-80
2022/01/17 13:05:16;;;;;;;17.10;11.60;;;;;;;;;;5019448;28;20278;-80
2022/01/17 13:07:42;;;;;;;14.38;9.55;;;;;;;;;;5020718;28;20253;-80
2022/01/17 13:10:10;;;;;;;14.25;10.30;;;;;;;;;;5017771;28;20224;-79
2022/01/17 13:12:36;;;;;;;16.02;10.80;;;;;;;;;;5020086;28;20186;-80
2022/01/17 13:15:02;;;;;;;15.93;10.82;;;;;;;;;;5004723;28;20210;-80
2022/01/17 13:17:32;;;;;;;17.98;11.15;;;;;;;;;;5019049;28;20187;-80
2022/01/17 13:19:58;;;;;;;13.70;10.75;;;;;;;;;;5014942;28;20290;-80
2022/01/17 13:22:25;;;;;;;16.35;10.55;;;;;;;;;;5012249;28;20660;-80
2022/01/17 13:25:02;;;;;;;20.05;10.88;;;;;;;;;;5013078;28;20202;-80
2022/01/17 13:27:31;;;;;;;15.38;11.07;;;;;;;;;;5017211;28;20194;-80
2022/01/17 13:29:58;;;;;;;14.32;10.80;;;;;;;;;;5014268;28;20676;-80
2022/01/17 13:32:32;;;;;;;14.68;9.57;;;;;;;;;;5003554;28;20246;-80
2022/01/17 13:35:05;;;;;;;14.85;10.32;;;;;;;;;;5017023;28;20543;-80
2022/01/17 13:37:31;;;;;;;16.67;10.63;;;;;;;;;;5021702;28;20214;-80
2022/01/17 13:39:57;;;;;;;14.73;10.93;;;;;;;;;;5009923;28;20230;-79
2022/01/17 13:42:24;;;;;;;17.02;10.82;;;;;;;;;;5006684;28;20191;-80
2022/01/17 13:44:51;;;;;;;16.08;10.40;;;;;;;;;;5007047;28;20229;-80
2022/01/17 13:47:17;;;;;;;11.82;10.40;;;;;;;;;;5002620;28;20183;-80
2022/01/17 13:49:45;;;;;;;17.98;11.55;;;;;;;;;;5020325;28;20183;-80
2022/01/17 13:52:11;;;;;;;15.55;10.50;;;;;;;;;;5008327;28;20183;-81
2022/01/17 13:54:39;;;;;;;25.17;12.52;;;;;;;;;;5006932;28;20191;-80
2022/01/17 13:57:15;;;;;;;16.08;11.82;;;;;;;;;;5015547;28;20209;-80
2022/01/17 13:59:41;;;;;;;14.93;10.93;;;;;;;;;;5016936;28;20240;-80
2022/01/17 14:02:17;;;;;;;15.95;11.10;;;;;;;;;;5018223;28;20633;-80
2022/01/17 14:04:43;;;;;;;14.02;9.77;;;;;;;;;;5018098;28;20725;-79
2022/01/17 14:07:22;;;;;;;18.38;9.57;;;;;;;;;;5012134;28;20186;-80
2022/01/17 14:09:48;;;;;;;12.15;9.23;;;;;;;;;;5014010;28;20182;-80
2022/01/17 14:12:14;;;;;;;15.00;9.20;;;;;;;;;;5014543;28;20291;-80
2022/01/17 14:14:46;;;;;;;10.13;7.35;;;;;;;;;;5006948;28;20175;-80
2022/01/17 14:17:21;;;;;;;14.25;9.27;;;;;;;;;;5011104;28;20189;-81
2022/01/17 14:19:47;;;;;;;15.65;9.27;;;;;;;;;;5011625;28;20185;-81
2022/01/17 14:22:17;;;;;;;14.45;9.48;;;;;;;;;;5019315;28;20734;-81
2022/01/17 14:24:44;;;;;;;14.57;9.90;;;;;;;;;;5017193;28;20233;-81
2022/01/17 14:27:20;;;;;;;12.40;8.68;;;;;;;;;;5017442;28;20174;-81
2022/01/17 14:29:48;;;;;;;10.38;8.55;;;;;;;;;;5012017;28;20190;-81
2022/01/17 14:32:15;;;;;;;11.88;8.43;;;;;;;;;;5015292;28;20193;-81
2022/01/17 14:34:42;;;;;;;11.52;8.80;;;;;;;;;;5019370;28;20214;-80
2022/01/17 14:37:08;;;;;;;11.73;9.10;;;;;;;;;;5018425;28;20191;-80
2022/01/17 14:39:41;;;;;;;9.40;6.97;;;;;;;;;;5013707;28;20237;-80
2022/01/17 14:42:11;;;;;;;10.07;8.65;;;;;;;;;;5008198;28;20289;-80
2022/01/17 14:44:38;;;;;;;11.70;8.75;;;;;;;;;;5014850;28;20183;-81
2022/01/17 14:47:12;;;;;;;11.38;8.25;;;;;;;;;;5015798;28;20190;-80
2022/01/17 14:49:41;;;;;;;10.52;8.38;;;;;;;;;;5010434;28;20179;-80
2022/01/17 14:52:27;;;;;;;13.30;8.10;;;;;;;;;;5013215;28;20388;-80